Time;durP1;ratioP1;P1;durP2;ratioP2;P2;SDS_P1;SDS_P2;PMS_P1;PMS_P2;Temp;Humidity;BMP_temperature;BMP_pressure;BME280_temperature;BME280_humidity;BME280_pressure;Samples;Min_cycle;Max_cycle;Signal;HPM_P1;HPM_P2
2021/03/02 00:00:17;;;;;;;61.23;29.17;;;4.50;93.40;;;;;;5073983;28;20072;-74
2021/03/02 00:02:44;;;;;;;67.87;31.77;;;4.50;93.50;;;;;;5074461;28;20294;-74
2021/03/02 00:05:11;;;;;;;61.63;30.10;;;4.40;93.40;;;;;;5074425;28;20344;-74
2021/03/02 00:07:37;;;;;;;53.67;27.47;;;4.40;93.40;;;;;;5073706;28;20075;-74
2021/03/02 00:10:06;;;;;;;55.10;27.73;;;4.40;93.50;;;;;;5074179;28;20356;-73
2021/03/02 00:12:32;;;;;;;61.27;28.13;;;4.40;93.50;;;;;;5074191;28;20303;-74
2021/03/02 00:14:58;;;;;;;58.60;27.57;;;4.40;93.50;;;;;;5074242;28;20302;-73
2021/03/02 00:17:26;;;;;;;67.47;29.10;;;4.40;93.60;;;;;;5074204;28;20780;-73
2021/03/02 00:20:05;;;;;;;65.97;29.87;;;4.40;93.50;;;;;;5073273;28;20072;-74
2021/03/02 00:22:39;;;;;;;57.93;28.97;;;4.40;93.60;;;;;;5074272;28;20414;-74
2021/03/02 00:25:06;;;;;;;70.80;32.73;;;4.40;93.50;;;;;;5074283;28;20326;-74
2021/03/02 00:27:35;;;;;;;58.70;28.23;;;4.30;93.50;;;;;;5073542;28;20302;-74
2021/03/02 00:30:02;;;;;;;58.73;29.03;;;4.30;93.60;;;;;;5074051;28;20299;-74
2021/03/02 00:32:28;;;;;;;61.70;28.80;;;4.30;93.60;;;;;;5074161;28;20299;-74
2021/03/02 00:34:53;;;;;;;58.30;28.13;;;4.30;93.60;;;;;;5073369;28;21333;-74
2021/03/02 00:37:19;;;;;;;64.40;30.47;;;4.30;93.60;;;;;;5073755;28;20553;-73
2021/03/02 00:39:45;;;;;;;62.77;28.97;;;4.20;93.60;;;;;;5073713;28;20186;-74
2021/03/02 00:42:11;;;;;;;64.50;29.70;;;4.20;93.60;;;;;;5073253;28;20048;-73
2021/03/02 00:44:37;;;;;;;70.27;29.47;;;4.20;93.60;;;;;;5072720;28;20400;-74
2021/03/02 00:47:03;;;;;;;71.07;30.80;;;4.20;93.60;;;;;;5073272;28;20349;-73
2021/03/02 00:49:29;;;;;;;59.13;26.43;;;4.10;93.60;;;;;;5073270;28;20311;-73
2021/03/02 00:51:54;;;;;;;73.53;30.43;;;4.10;93.60;;;;;;5073838;28;20314;-73
2021/03/02 00:54:21;;;;;;;65.90;28.17;;;4.00;93.60;;;;;;5073737;28;20504;-74
2021/03/02 00:56:47;;;;;;;70.10;31.17;;;4.00;93.60;;;;;;5072936;28;20119;-74
2021/03/02 00:59:12;;;;;;;75.83;29.80;;;4.00;93.60;;;;;;5073424;28;20422;-74
2021/03/02 01:01:38;;;;;;;83.60;33.33;;;3.90;93.80;;;;;;5073207;28;20151;-74
2021/03/02 01:04:04;;;;;;;63.60;29.13;;;4.00;93.70;;;;;;5073467;28;20052;-74
2021/03/02 01:06:30;;;;;;;67.73;29.83;;;3.90;93.60;;;;;;5073714;28;20397;-74
2021/03/02 01:08:56;;;;;;;74.80;29.90;;;3.90;93.60;;;;;;5072541;28;20529;-73
2021/03/02 01:11:21;;;;;;;76.80;31.87;;;3.80;93.60;;;;;;5073228;28;20052;-73
2021/03/02 01:13:47;;;;;;;65.53;28.57;;;3.80;93.70;;;;;;5073314;28;20513;-74
2021/03/02 01:16:13;;;;;;;66.30;27.97;;;3.80;93.70;;;;;;5072348;28;20481;-74
2021/03/02 01:18:39;;;;;;;62.47;28.80;;;3.90;93.70;;;;;;5072870;28;20131;-74
2021/03/02 01:21:05;;;;;;;63.33;30.13;;;4.00;93.70;;;;;;5073164;28;20839;-73
2021/03/02 01:23:31;;;;;;;66.73;31.70;;;4.00;93.70;;;;;;5072697;28;20056;-74
2021/03/02 01:25:57;;;;;;;69.90;31.70;;;4.00;93.60;;;;;;5072935;28;20360;-73
2021/03/02 01:28:22;;;;;;;67.50;30.93;;;4.10;93.60;;;;;;5072551;28;20505;-74
2021/03/02 01:30:48;;;;;;;66.50;31.73;;;4.10;93.70;;;;;;5071968;28;20047;-74
2021/03/02 01:33:13;;;;;;;61.30;29.13;;;4.10;93.60;;;;;;5072489;28;20055;-74
2021/03/02 01:35:39;;;;;;;70.20;32.73;;;4.10;93.60;;;;;;5072806;28;20481;-74
2021/03/02 01:38:05;;;;;;;62.93;29.60;;;4.10;93.60;;;;;;5071940;28;20129;-74
2021/03/02 01:40:31;;;;;;;70.60;31.97;;;4.10;93.60;;;;;;5073060;28;20048;-74
2021/03/02 01:42:57;;;;;;;59.43;29.20;;;4.20;93.60;;;;;;5072694;28;20303;-74
2021/03/02 01:45:23;;;;;;;64.97;30.60;;;4.20;93.70;;;;;;5071685;28;20048;-73
2021/03/02 01:47:51;;;;;;;73.23;30.90;;;4.20;93.70;;;;;;5072306;28;20053;-74
2021/03/02 01:50:18;;;;;;;78.33;32.67;;;4.30;93.70;;;;;;5072438;28;20048;-73
2021/03/02 01:52:44;;;;;;;60.43;29.53;;;4.30;93.60;;;;;;5071494;28;20775;-73
2021/03/02 01:55:10;;;;;;;65.57;31.73;;;4.30;93.60;;;;;;5072001;28;20309;-73
2021/03/02 01:57:36;;;;;;;53.87;29.23;;;4.20;93.60;;;;;;5072641;28;20375;-73
2021/03/02 02:00:08;;;;;;;66.97;29.70;;;4.20;93.60;;;;;;5071155;28;20317;-73
2021/03/02 02:02:38;;;;;;;61.70;29.63;;;4.20;93.50;;;;;;5072632;28;20059;-73
2021/03/02 02:05:06;;;;;;;71.47;28.00;;;4.20;93.60;;;;;;5071717;28;20360;-74
2021/03/02 02:07:38;;;;;;;78.97;30.00;;;4.10;93.60;;;;;;5072353;28;20783;-73
2021/03/02 02:10:21;;;;;;;69.23;29.93;;;4.10;93.70;;;;;;5072058;28;20784;-74
2021/03/02 02:13:08;;;;;;;73.00;28.67;;;4.10;93.70;;;;;;5071344;28;20044;-73
2021/03/02 02:15:37;;;;;;;54.77;29.03;;;4.00;93.70;;;;;;5072583;28;20644;-74
2021/03/02 02:18:11;;;;;;;70.13;30.30;;;4.00;93.60;;;;;;5071807;28;20336;-73
2021/03/02 02:20:45;;;;;;;58.47;29.77;;;4.00;93.60;;;;;;5071523;28;20656;-73
2021/03/02 02:23:13;;;;;;;69.73;30.33;;;4.00;93.60;;;;;;5071762;28;20311;-74
2021/03/02 02:26:00;;;;;;;62.53;28.33;;;4.00;93.60;;;;;;5071965;28;20302;-74
2021/03/02 02:28:27;;;;;;;61.87;28.23;;;4.00;93.50;;;;;;5071239;28;20350;-74
2021/03/02 02:30:56;;;;;;;63.27;28.10;;;4.00;93.50;;;;;;5071957;28;20291;-74
2021/03/02 02:33:25;;;;;;;83.83;30.13;;;4.00;93.50;;;;;;5070630;28;20809;-74
2021/03/02 02:35:51;;;;;;;71.13;31.40;;;3.90;93.50;;;;;;5070867;28;20336;-73
2021/03/02 02:38:20;;;;;;;70.97;31.73;;;3.90;93.50;;;;;;5071836;28;20720;-74
2021/03/02 02:40:48;;;;;;;77.43;30.43;;;3.90;93.60;;;;;;5070966;28;20309;-74
2021/03/02 02:43:16;;;;;;;74.87;31.67;;;3.90;93.60;;;;;;5071667;28;20377;-74
2021/03/02 02:45:42;;;;;;;73.67;32.03;;;3.80;93.60;;;;;;5071622;28;20306;-74
2021/03/02 02:48:09;;;;;;;77.50;31.77;;;3.80;93.60;;;;;;5070754;28;20319;-74
2021/03/02 02:50:35;;;;;;;105.20;31.13;;;3.80;93.60;;;;;;5071963;28;20463;-74
2021/03/02 02:53:01;;;;;;;90.00;32.77;;;3.80;93.70;;;;;;5071785;28;20302;-74
2021/03/02 02:55:35;;;;;;;83.10;30.40;;;3.80;93.80;;;;;;5070922;28;20303;-74
2021/03/02 02:58:03;;;;;;;82.20;31.87;;;3.80;93.70;;;;;;5071557;28;20374;-74
2021/03/02 03:00:31;;;;;;;80.53;31.20;;;3.80;93.60;;;;;;5071692;28;20366;-73
2021/03/02 03:02:58;;;;;;;84.23;32.87;;;3.70;93.60;;;;;;5070806;28;20295;-73
2021/03/02 03:05:27;;;;;;;91.27;34.30;;;3.70;94.10;;;;;;5071510;28;20298;-73
2021/03/02 03:08:12;;;;;;;74.43;32.47;;;3.60;93.60;;;;;;5073574;28;20397;-74
2021/03/02 03:10:38;;;;;;;77.80;32.03;;;3.60;93.70;;;;;;5075143;28;20348;-74
2021/03/02 03:13:06;;;;;;;82.43;32.53;;;3.60;93.60;;;;;;5075212;28;20306;-74
2021/03/02 03:15:35;;;;;;;77.93;34.27;;;3.70;93.80;;;;;;5075049;28;20294;-74
2021/03/02 03:18:07;;;;;;;85.53;33.47;;;3.70;93.70;;;;;;5075444;28;20342;-74
2021/03/02 03:20:33;;;;;;;69.97;30.73;;;3.70;93.70;;;;;;5075572;28;20295;-74
2021/03/02 03:23:00;;;;;;;80.30;32.77;;;3.70;93.70;;;;;;5074585;28;20311;-74
2021/03/02 03:25:26;;;;;;;104.40;36.60;;;3.70;93.80;;;;;;5075149;28;20316;-74
2021/03/02 03:27:58;;;;;;;106.67;33.47;;;3.70;93.70;;;;;;5075038;28;20393;-74
2021/03/02 03:30:24;;;;;;;;;;;3.70;93.80;;;;;;5074918;28;20049;-74
2021/03/02 03:32:57;;;;;;;82.80;34.50;;;3.70;93.90;;;;;;5074897;28;20377;-74
2021/03/02 03:35:24;;;;;;;97.70;34.97;;;3.70;93.70;;;;;;5075004;28;20302;-74
2021/03/02 03:37:50;;;;;;;111.80;36.50;;;3.60;93.60;;;;;;5074124;28;20356;-74
2021/03/02 03:40:15;;;;;;;97.80;35.83;;;3.60;93.70;;;;;;5074765;28;20295;-74
2021/03/02 03:42:41;;;;;;;117.27;37.67;;;3.60;93.80;;;;;;5074948;28;20074;-74
2021/03/02 03:45:07;;;;;;;109.93;36.47;;;3.50;93.80;;;;;;5074196;28;20472;-74
2021/03/02 03:47:34;;;;;;;104.03;35.07;;;3.50;93.80;;;;;;5075112;28;20048;-74
2021/03/02 03:50:00;;;;;;;110.90;38.07;;;3.50;93.80;;;;;;5074602;28;20349;-74
2021/03/02 03:52:26;;;;;;;88.73;34.30;;;3.50;93.80;;;;;;5073899;28;20306;-74
2021/03/02 03:54:55;;;;;;;110.00;35.97;;;3.50;93.90;;;;;;5074456;28;20295;-74
2021/03/02 03:57:23;;;;;;;104.30;34.57;;;3.50;93.90;;;;;;5074648;28;20048;-74
2021/03/02 03:59:49;;;;;;;87.10;33.50;;;3.50;93.80;;;;;;5073694;28;20770;-74
2021/03/02 04:02:15;;;;;;;92.60;35.63;;;3.50;93.80;;;;;;5074527;28;20393;-74
2021/03/02 04:04:41;;;;;;;102.60;36.67;;;3.50;93.90;;;;;;5073629;28;20072;-74
2021/03/02 04:07:08;;;;;;;92.30;34.53;;;3.40;93.80;;;;;;5074282;28;20052;-74
2021/03/02 04:09:34;;;;;;;89.53;34.57;;;3.40;93.80;;;;;;5074720;28;20337;-74
2021/03/02 04:12:00;;;;;;;82.23;33.00;;;3.50;93.80;;;;;;5073729;28;20132;-73
2021/03/02 04:14:30;;;;;;;95.40;34.73;;;3.50;94.00;;;;;;5074275;28;20724;-74
2021/03/02 04:16:56;;;;;;;95.83;35.57;;;3.60;94.00;;;;;;5074346;28;20452;-76
2021/03/02 04:19:22;;;;;;;113.17;39.17;;;3.50;93.90;;;;;;5073214;28;20307;-74
2021/03/02 04:21:48;;;;;;;100.53;34.87;;;3.60;93.90;;;;;;5073988;28;20048;-74
2021/03/02 04:24:14;;;;;;;107.03;37.00;;;3.60;93.90;;;;;;5074211;28;20294;-73
2021/03/02 04:26:40;;;;;;;91.90;37.20;;;3.60;93.90;;;;;;5073230;28;20048;-74
2021/03/02 04:29:05;;;;;;;119.17;38.53;;;3.60;93.90;;;;;;5073647;28;20056;-73
2021/03/02 04:31:31;;;;;;;103.30;35.70;;;3.60;94.00;;;;;;5074335;28;20136;-73
2021/03/02 04:33:57;;;;;;;140.40;40.50;;;3.60;94.00;;;;;;5073218;28;20051;-74
2021/03/02 04:36:22;;;;;;;123.20;38.87;;;3.70;94.00;;;;;;5073840;28;20044;-74
2021/03/02 04:38:48;;;;;;;122.30;37.77;;;3.60;93.90;;;;;;5074089;28;20059;-74
2021/03/02 04:41:13;;;;;;;117.57;37.77;;;3.60;93.90;;;;;;5073060;28;20500;-73
2021/03/02 04:43:39;;;;;;;96.43;38.10;;;3.60;93.90;;;;;;5073700;28;20079;-73
2021/03/02 04:46:05;;;;;;;107.67;37.53;;;3.50;93.90;;;;;;5073791;28;20048;-73
2021/03/02 04:48:31;;;;;;;128.27;39.30;;;3.50;94.00;;;;;;5073204;28;20044;-73
2021/03/02 04:50:57;;;;;;;129.90;34.87;;;3.60;94.00;;;;;;5073575;28;20390;-74
2021/03/02 04:53:22;;;;;;;113.90;37.03;;;3.60;94.00;;;;;;5073451;28;20071;-74
2021/03/02 04:55:48;;;;;;;148.43;37.33;;;3.60;94.10;;;;;;5072970;28;20040;-73
2021/03/02 04:58:13;;;;;;;160.50;39.40;;;3.60;94.10;;;;;;5073562;28;20102;-73
2021/03/02 05:00:39;;;;;;;175.03;37.47;;;3.50;94.00;;;;;;5073446;28;20048;-74
2021/03/02 05:03:05;;;;;;;159.97;34.80;;;3.50;94.00;;;;;;5072569;28;20072;-74
2021/03/02 05:05:31;;;;;;;146.63;38.03;;;3.40;94.00;;;;;;5073415;28;20048;-74
2021/03/02 05:07:57;;;;;;;134.73;36.67;;;3.40;94.10;;;;;;5072671;28;20060;-74
2021/03/02 05:10:22;;;;;;;143.73;36.60;;;3.40;94.10;;;;;;5073349;28;20299;-73
2021/03/02 05:12:48;;;;;;;105.13;34.17;;;3.40;94.10;;;;;;5073254;28;20497;-74
2021/03/02 05:15:14;;;;;;;132.80;36.83;;;3.40;94.10;;;;;;5072481;28;20090;-74
2021/03/02 05:17:40;;;;;;;126.10;35.07;;;3.40;94.20;;;;;;5073090;28;20044;-74
2021/03/02 05:20:06;;;;;;;91.10;34.30;;;3.40;94.30;;;;;;5072899;28;20294;-74
2021/03/02 05:22:32;;;;;;;89.63;33.40;;;3.40;94.10;;;;;;5072739;28;20052;-74
2021/03/02 05:24:58;;;;;;;103.43;36.97;;;3.40;94.20;;;;;;5073098;28;20715;-74
2021/03/02 05:27:23;;;;;;;92.50;35.97;;;3.40;94.20;;;;;;5073099;28;20098;-74
2021/03/02 05:29:49;;;;;;;89.50;33.33;;;3.50;94.10;;;;;;5071094;28;20109;-74
2021/03/02 05:32:15;;;;;;;99.43;32.83;;;3.50;94.10;;;;;;5072711;28;20075;-74
2021/03/02 05:34:40;;;;;;;89.03;32.90;;;3.50;94.20;;;;;;5072527;28;20040;-74
2021/03/02 05:37:06;;;;;;;136.30;35.63;;;3.50;94.10;;;;;;5072132;28;20052;-74
2021/03/02 05:39:32;;;;;;;100.90;35.23;;;3.60;94.20;;;;;;5072952;28;20048;-73
2021/03/02 05:42:01;;;;;;;106.53;32.50;;;3.70;94.10;;;;;;5072448;28;20153;-74
2021/03/02 05:44:28;;;;;;;117.03;36.70;;;3.70;94.10;;;;;;5072128;28;20306;-74
2021/03/02 05:46:54;;;;;;;102.97;34.33;;;3.70;94.10;;;;;;5072417;28;20287;-74
2021/03/02 05:49:25;;;;;;;103.07;33.65;;;3.60;94.00;;;;;;5072230;28;20322;-74
2021/03/02 05:51:53;;;;;;;105.93;34.23;;;3.60;94.00;;;;;;5071812;28;20052;-74
2021/03/02 05:54:20;;;;;;;112.70;33.93;;;3.60;94.10;;;;;;5072190;28;20298;-73
2021/03/02 05:56:48;;;;;;;128.07;33.73;;;3.60;94.20;;;;;;5072243;28;20143;-74
2021/03/02 05:59:14;;;;;;;163.13;35.30;;;3.50;94.10;;;;;;5071429;28;20660;-74
2021/03/02 06:01:39;;;;;;;183.73;34.83;;;3.50;94.20;;;;;;5072106;28;20052;-74
2021/03/02 06:04:06;;;;;;;127.70;33.57;;;3.50;94.20;;;;;;5071697;28;20048;-74
2021/03/02 06:06:31;;;;;;;127.80;34.80;;;3.50;94.20;;;;;;5072670;28;20052;-74
2021/03/02 06:08:58;;;;;;;106.37;32.47;;;3.50;94.20;;;;;;5071920;28;20321;-74
2021/03/02 06:11:27;;;;;;;103.70;33.30;;;3.50;94.30;;;;;;5069991;28;20730;-74
2021/03/02 06:13:54;;;;;;;77.67;32.67;;;3.50;94.20;;;;;;5071914;28;20067;-74
2021/03/02 06:16:20;;;;;;;102.73;34.33;;;3.50;94.20;;;;;;5071590;28;20290;-74
2021/03/02 06:18:53;;;;;;;84.67;31.23;;;3.50;94.20;;;;;;5071204;28;20356;-74
2021/03/02 06:21:20;;;;;;;112.70;36.03;;;3.50;94.20;;;;;;5072001;28;20694;-74
2021/03/02 06:23:53;;;;;;;97.60;33.13;;;3.50;94.20;;;;;;5071913;28;20386;-74
2021/03/02 06:26:24;;;;;;;164.20;36.23;;;3.50;94.20;;;;;;5070989;28;20802;-74
2021/03/02 06:28:57;;;;;;;152.27;35.83;;;3.50;94.20;;;;;;5071427;28;20324;-74
2021/03/02 06:31:40;;;;;;;141.77;37.37;;;3.60;94.20;;;;;;5071866;28;20299;-74
2021/03/02 06:34:18;;;;;;;133.17;36.57;;;3.60;94.20;;;;;;5070953;28;20305;-73
2021/03/02 06:36:53;;;;;;;133.97;32.40;;;3.50;94.10;;;;;;5071540;28;20290;-74
2021/03/02 06:39:42;;;;;;;136.63;33.07;;;3.50;94.10;;;;;;5070773;28;20317;-73
2021/03/02 06:42:10;;;;;;;88.93;33.63;;;3.50;94.10;;;;;;5071502;28;20660;-74
2021/03/02 06:44:37;;;;;;;90.20;29.83;;;3.50;94.10;;;;;;5071938;28;20356;-74
2021/03/02 06:47:04;;;;;;;77.43;29.80;;;3.50;94.10;;;;;;5070615;28;20302;-74
2021/03/02 06:49:45;;;;;;;89.43;29.97;;;3.50;94.10;;;;;;5071421;28;20388;-73
2021/03/02 06:52:20;;;;;;;130.23;31.83;;;3.50;94.10;;;;;;5071204;28;20313;-73
2021/03/02 06:54:48;;;;;;;100.60;30.53;;;3.50;94.00;;;;;;5070746;28;20295;-73
2021/03/02 06:57:25;;;;;;;114.27;31.17;;;3.50;94.00;;;;;;5071464;28;20302;-72
2021/03/02 07:00:02;;;;;;;101.07;30.77;;;3.40;94.00;;;;;;5087018;28;20378;-72
2021/03/02 07:02:36;;;;;;;104.10;29.80;;;3.40;94.00;;;;;;5071162;28;20378;-72
2021/03/02 07:05:09;;;;;;;128.77;31.17;;;3.40;94.10;;;;;;5071243;28;20294;-72
2021/03/02 07:07:36;;;;;;;172.43;31.23;;;3.30;94.10;;;;;;5071029;28;20300;-73
2021/03/02 07:10:04;;;;;;;146.03;30.10;;;3.40;94.20;;;;;;5070997;28;20314;-73
2021/03/02 07:12:32;;;;;;;98.63;29.03;;;3.40;94.10;;;;;;5071204;28;20290;-72
2021/03/02 07:15:03;;;;;;;99.47;29.60;;;3.40;94.10;;;;;;5070698;28;20388;-72
2021/03/02 07:17:30;;;;;;;131.15;29.02;;;3.40;94.00;;;;;;5071541;28;20299;-72
2021/03/02 07:19:57;;;;;;;170.30;32.10;;;3.40;94.10;;;;;;5071287;28;20090;-74
2021/03/02 07:22:25;;;;;;;130.33;34.60;;;3.40;94.00;;;;;;5070373;28;20302;-71
2021/03/02 07:24:53;;;;;;;70.60;29.10;;;3.40;94.10;;;;;;5070924;28;20326;-74
2021/03/02 07:27:21;;;;;;;89.27;31.10;;;3.40;94.10;;;;;;5071239;28;20309;-74
2021/03/02 07:29:49;;;;;;;111.73;31.73;;;3.40;94.20;;;;;;5070091;28;20616;-72
2021/03/02 07:32:15;;;;;;;102.47;33.33;;;3.50;94.20;;;;;;5070984;28;20351;-75
2021/03/02 07:34:44;;;;;;;78.83;30.80;;;3.50;94.20;;;;;;5070727;28;20705;-74
2021/03/02 07:37:10;;;;;;;92.83;33.83;;;3.60;94.20;;;;;;5067909;28;20133;-74
2021/03/02 07:39:37;;;;;;;101.60;31.87;;;3.60;94.10;;;;;;5070702;28;20351;-74
2021/03/02 07:42:22;;;;;;;83.83;33.17;;;3.60;94.00;;;;;;5067959;28;20290;-74
2021/03/02 07:45:07;;;;;;;85.73;30.33;;;3.60;94.00;;;;;;5067215;28;20295;-72
2021/03/02 07:47:41;;;;;;;77.57;29.00;;;3.60;94.00;;;;;;5069023;28;20306;-75
2021/03/02 07:50:31;;;;;;;81.83;32.70;;;3.50;94.00;;;;;;5066770;28;20400;-77
2021/03/02 07:53:22;;;;;;;114.63;33.00;;;3.50;94.00;;;;;;5070945;28;20702;-72
2021/03/02 07:56:23;;;;;;;84.80;32.90;;;3.50;94.00;;;;;;5072888;28;20814;-71
2021/03/02 07:59:19;;;;;;;95.97;31.87;;;3.60;94.00;;;;;;5072314;28;20405;-75
2021/03/02 08:02:05;;;;;;;67.40;27.97;;;3.50;94.00;;;;;;5073407;28;20330;-76
2021/03/02 08:04:30;;;;;;;82.00;31.53;;;3.50;93.80;;;;;;5072409;28;20298;-74
2021/03/02 08:07:17;;;;;;;98.50;31.47;;;3.50;93.90;;;;;;5071526;28;20698;-68
2021/03/02 08:09:43;;;;;;;81.90;31.73;;;3.50;93.90;;;;;;5072077;28;20075;-73
2021/03/02 08:12:31;;;;;;;79.43;31.13;;;3.50;94.00;;;;;;5072885;28;20299;-73
2021/03/02 08:14:59;;;;;;;84.17;33.13;;;3.50;94.10;;;;;;5070972;28;20298;-73
2021/03/02 08:17:26;;;;;;;76.87;32.93;;;3.50;94.10;;;;;;5073825;28;20679;-72
2021/03/02 08:20:03;;;;;;;60.00;30.60;;;3.60;94.00;;;;;;5073189;28;20319;-73
2021/03/02 08:22:33;;;;;;;69.00;32.00;;;3.70;94.00;;;;;;5073909;28;20715;-73
2021/03/02 08:25:05;;;;;;;66.20;30.97;;;3.70;93.90;;;;;;5070400;28;20712;-72
2021/03/02 08:27:57;;;;;;;69.13;30.43;;;3.70;93.90;;;;;;5073662;28;20783;-73
2021/03/02 08:30:24;;;;;;;78.23;32.07;;;3.70;93.70;;;;;;5071773;28;20402;-72
2021/03/02 08:32:52;;;;;;;65.10;30.90;;;3.80;93.80;;;;;;5072877;28;20293;-73
2021/03/02 08:35:23;;;;;;;75.07;32.37;;;3.70;93.70;;;;;;5070886;28;20294;-73
2021/03/02 08:37:55;;;;;;;77.38;32.13;;;3.80;93.80;;;;;;5072482;28;20671;-72
2021/03/02 08:40:31;;;;;;;78.63;32.05;;;3.80;93.70;;;;;;5070797;28;20076;-73
2021/03/02 08:42:59;;;;;;;74.20;30.33;;;3.80;93.80;;;;;;5073643;28;20045;-73
2021/03/02 08:45:26;;;;;;;82.63;31.30;;;3.80;93.70;;;;;;5073360;28;20764;-74
2021/03/02 08:47:51;;;;;;;112.47;35.07;;;3.80;93.60;;;;;;5072668;28;20344;-74
2021/03/02 08:50:34;;;;;;;80.47;32.80;;;3.70;93.70;;;;;;5070235;28;20794;-75
2021/03/02 08:53:00;;;;;;;67.40;31.10;;;3.70;93.70;;;;;;5070381;28;20053;-74
2021/03/02 08:55:38;;;;;;;69.43;32.40;;;3.70;93.70;;;;;;5072741;28;20291;-75
2021/03/02 08:58:04;;;;;;;68.23;31.40;;;3.80;93.80;;;;;;5071785;28;20299;-74
2021/03/02 09:00:31;;;;;;;69.13;30.37;;;3.80;93.80;;;;;;5072985;28;20697;-74
2021/03/02 09:02:58;;;;;;;67.00;31.27;;;3.80;93.70;;;;;;5072842;28;20370;-75
2021/03/02 09:05:23;;;;;;;56.87;30.40;;;3.80;93.70;;;;;;5072044;28;20723;-76
2021/03/02 09:08:08;;;;;;;58.53;31.03;;;3.90;93.80;;;;;;5072224;28;20052;-75
2021/03/02 09:10:35;;;;;;;59.47;30.40;;;4.00;94.10;;;;;;5072510;28;20056;-75
2021/03/02 09:13:05;;;;;;;64.10;31.33;;;4.10;93.70;;;;;;5069078;28;20294;-74
2021/03/02 09:15:42;;;;;;;58.50;30.80;;;4.20;93.50;;;;;;5072000;28;20397;-76
2021/03/02 09:18:16;;;;;;;60.93;30.23;;;4.20;93.50;;;;;;5070357;28;20806;-76
2021/03/02 09:20:54;;;;;;;63.53;31.83;;;4.20;93.50;;;;;;5072648;28;20287;-75
2021/03/02 09:23:19;;;;;;;60.40;31.43;;;4.20;93.50;;;;;;5071566;28;20306;-75
2021/03/02 09:25:45;;;;;;;56.20;28.77;;;4.30;93.50;;;;;;5071995;28;20286;-74
2021/03/02 09:28:15;;;;;;;63.50;32.57;;;4.30;93.50;;;;;;5071896;28;20411;-75
2021/03/02 09:30:42;;;;;;;60.53;31.93;;;4.30;93.40;;;;;;5073021;28;20075;-76
2021/03/02 09:33:09;;;;;;;58.50;31.63;;;4.40;93.50;;;;;;5072827;28;20295;-73
2021/03/02 09:35:35;;;;;;;60.40;31.60;;;4.50;93.30;;;;;;5072115;28;20775;-76
2021/03/02 09:38:00;;;;;;;63.90;33.00;;;4.50;93.10;;;;;;5072314;28;20299;-76
2021/03/02 09:40:26;;;;;;;58.80;32.20;;;4.50;93.10;;;;;;5072321;28;20135;-76
2021/03/02 09:42:54;;;;;;;62.73;33.63;;;4.50;93.30;;;;;;5071997;28;20105;-78
2021/03/02 09:45:21;;;;;;;56.00;30.70;;;4.60;93.20;;;;;;5072501;28;20052;-79
2021/03/02 09:47:56;;;;;;;53.00;30.20;;;4.60;93.20;;;;;;5072286;28;20298;-76
2021/03/02 09:50:22;;;;;;;51.57;29.23;;;4.60;93.20;;;;;;5071668;28;20299;-77
2021/03/02 09:52:50;;;;;;;55.67;32.03;;;4.60;93.10;;;;;;5072166;28;20344;-78
2021/03/02 09:55:19;;;;;;;47.10;29.07;;;4.70;93.10;;;;;;5072715;28;20105;-78
2021/03/02 09:58:12;;;;;;;51.13;29.87;;;4.70;92.90;;;;;;5071533;28;20310;-77
2021/03/02 10:00:45;;;;;;;60.80;31.60;;;4.60;92.90;;;;;;5072403;28;20337;-78
2021/03/02 10:03:13;;;;;;;49.53;29.10;;;4.70;92.90;;;;;;5071974;28;20370;-76
2021/03/02 10:05:42;;;;;;;54.40;30.43;;;4.70;92.90;;;;;;5071879;28;20816;-77
2021/03/02 10:08:36;;;;;;;43.47;27.57;;;4.60;92.90;;;;;;5072006;28;20298;-75
2021/03/02 10:11:10;;;;;;;50.03;27.30;;;4.70;92.90;;;;;;5070971;28;20794;-75
2021/03/02 10:13:45;;;;;;;50.70;28.53;;;4.70;92.70;;;;;;5072098;28;20303;-75
2021/03/02 10:16:15;;;;;;;50.77;29.00;;;4.80;92.90;;;;;;5071482;28;20349;-74
2021/03/02 10:19:22;;;;;;;47.90;27.00;;;4.90;92.80;;;;;;5071182;28;20291;-74
2021/03/02 10:21:56;;;;;;;47.47;29.40;;;5.00;92.50;;;;;;5068115;28;20301;-73
2021/03/02 10:24:43;;;;;;;54.13;33.10;;;5.10;92.50;;;;;;5070725;28;20312;-73
2021/03/02 10:27:13;;;;;;;49.87;29.13;;;5.10;92.50;;;;;;5071675;28;20343;-73
2021/03/02 10:29:40;;;;;;;47.57;28.70;;;5.30;92.50;;;;;;5071634;28;20421;-72
2021/03/02 10:32:07;;;;;;;41.27;27.00;;;5.40;92.50;;;;;;5070912;28;20286;-73
2021/03/02 10:34:37;;;;;;;39.70;26.60;;;5.60;92.40;;;;;;5071715;28;20712;-73
2021/03/02 10:37:07;;;;;;;39.80;26.07;;;5.80;92.40;;;;;;5071277;28;20301;-73
2021/03/02 10:39:33;;;;;;;43.03;28.03;;;6.10;92.20;;;;;;5071107;28;20313;-73
2021/03/02 10:41:59;;;;;;;42.33;28.73;;;6.30;91.80;;;;;;5071559;28;20387;-75
2021/03/02 10:44:25;;;;;;;43.83;28.40;;;6.50;91.70;;;;;;5071370;28;20303;-74
2021/03/02 10:46:51;;;;;;;43.20;29.40;;;6.60;91.60;;;;;;5070575;28;20295;-74
2021/03/02 10:49:17;;;;;;;41.80;27.87;;;6.70;91.40;;;;;;5071225;28;20051;-74
2021/03/02 10:51:42;;;;;;;40.33;27.73;;;6.70;91.30;;;;;;5071397;28;20473;-74
2021/03/02 10:54:10;;;;;;;42.73;29.57;;;6.90;91.30;;;;;;5070867;28;20562;-74
2021/03/02 10:56:36;;;;;;;43.67;30.17;;;6.90;91.10;;;;;;5071746;28;20045;-73
2021/03/02 10:59:02;;;;;;;41.23;28.77;;;7.00;90.90;;;;;;5071208;28;20322;-75
2021/03/02 11:01:28;;;;;;;40.93;29.80;;;7.00;90.80;;;;;;5070638;28;20299;-75
2021/03/02 11:03:53;;;;;;;39.77;28.00;;;7.10;90.90;;;;;;5071020;28;20309;-75
2021/03/02 11:06:21;;;;;;;39.03;28.00;;;7.10;90.70;;;;;;5070983;28;20052;-75
2021/03/02 11:08:48;;;;;;;40.80;27.57;;;7.20;90.40;;;;;;5070571;28;20053;-73
2021/03/02 11:11:15;;;;;;;44.90;29.47;;;7.40;90.40;;;;;;5071194;28;20696;-74
2021/03/02 11:13:42;;;;;;;43.50;29.27;;;7.50;90.30;;;;;;5070282;28;20295;-74
2021/03/02 11:16:11;;;;;;;36.13;26.77;;;7.70;89.90;;;;;;5070899;28;20659;-74
2021/03/02 11:18:37;;;;;;;44.20;29.73;;;7.90;89.80;;;;;;5071625;28;20374;-73
2021/03/02 11:21:03;;;;;;;41.80;29.37;;;8.10;89.20;;;;;;5070013;28;20341;-75
2021/03/02 11:23:29;;;;;;;45.73;30.00;;;8.20;88.30;;;;;;5071415;28;20330;-74
2021/03/02 11:25:55;;;;;;;40.33;29.67;;;8.20;87.90;;;;;;5070901;28;20048;-74
2021/03/02 11:28:20;;;;;;;39.83;28.53;;;8.20;88.20;;;;;;5070892;28;20044;-74
2021/03/02 11:30:46;;;;;;;44.83;28.70;;;8.20;87.60;;;;;;5074758;28;20056;-74
2021/03/02 11:33:13;;;;;;;42.57;29.00;;;8.30;87.80;;;;;;5074920;28;20053;-75
2021/03/02 11:35:40;;;;;;;39.80;27.03;;;8.40;87.30;;;;;;5074244;28;20060;-74
2021/03/02 11:38:06;;;;;;;43.50;28.87;;;8.40;86.60;;;;;;5074933;28;20371;-74
2021/03/02 11:40:33;;;;;;;38.80;28.87;;;8.50;86.50;;;;;;5075172;28;20305;-74
2021/03/02 11:42:58;;;;;;;39.23;27.50;;;8.60;86.50;;;;;;5073898;28;20847;-74
2021/03/02 11:45:26;;;;;;;39.00;26.60;;;8.80;86.40;;;;;;5074430;28;20855;-74
2021/03/02 11:47:52;;;;;;;35.67;25.87;;;9.00;85.80;;;;;;5074674;28;20119;-74
2021/03/02 11:50:19;;;;;;;37.43;29.07;;;9.20;85.10;;;;;;5073763;28;20341;-74
2021/03/02 11:52:46;;;;;;;38.27;28.60;;;9.20;84.90;;;;;;5074582;28;20337;-74
2021/03/02 11:55:12;;;;;;;38.20;28.60;;;9.40;84.60;;;;;;5074370;28;20303;-74
2021/03/02 11:57:38;;;;;;;39.20;28.50;;;9.40;83.90;;;;;;5073949;28;20412;-74
2021/03/02 12:00:09;;;;;;;42.00;30.63;;;9.50;83.70;;;;;;5074323;28;20798;-74
2021/03/02 12:02:35;;;;;;;40.65;29.73;;;9.50;83.30;;;;;;5074979;28;20110;-74
2021/03/02 12:05:02;;;;;;;40.03;29.30;;;9.60;83.20;;;;;;5073511;28;20464;-73
2021/03/02 12:07:27;;;;;;;38.67;27.83;;;9.60;83.30;;;;;;5074642;28;20053;-74
2021/03/02 12:09:53;;;;;;;39.07;27.57;;;9.70;82.90;;;;;;5072734;28;20410;-73
2021/03/02 12:12:19;;;;;;;40.43;29.27;;;9.90;82.10;;;;;;5073501;28;20049;-74
2021/03/02 12:14:45;;;;;;;38.37;26.70;;;9.90;81.40;;;;;;5073385;28;20488;-74
2021/03/02 12:17:11;;;;;;;34.43;27.83;;;10.00;81.30;;;;;;5073477;28;20356;-74
2021/03/02 12:19:37;;;;;;;35.03;26.70;;;10.10;81.70;;;;;;5074375;28;20302;-73
2021/03/02 12:22:03;;;;;;;34.70;27.80;;;10.40;80.70;;;;;;5073750;28;20052;-73
2021/03/02 12:24:28;;;;;;;33.33;25.50;;;10.50;80.00;;;;;;5073213;28;20041;-73
2021/03/02 12:26:55;;;;;;;33.97;24.93;;;10.60;80.10;;;;;;5073613;28;20052;-73
2021/03/02 12:29:21;;;;;;;35.90;25.80;;;10.70;79.30;;;;;;5072941;28;20078;-73
2021/03/02 12:31:47;;;;;;;35.43;27.20;;;10.80;78.90;;;;;;5071788;28;20390;-73
2021/03/02 12:34:13;;;;;;;34.20;26.17;;;10.90;78.60;;;;;;5071521;28;20166;-73
2021/03/02 12:36:40;;;;;;;36.73;26.20;;;11.00;79.50;;;;;;5073575;28;20049;-73
2021/03/02 12:39:07;;;;;;;36.07;26.67;;;11.10;78.30;;;;;;5072774;28;20105;-74
2021/03/02 12:41:33;;;;;;;34.00;26.50;;;11.20;78.00;;;;;;5073845;28;20094;-74